sensor_id;sensor_type;location;lat;lon;timestamp;P1;durP1;ratioP1;P2;durP2;ratioP2
2810;SDS011;1413;52.440;13.506;2022-09-04T00:00:35;5.80;;;1.27;;
2810;SDS011;1413;52.440;13.506;2022-09-04T00:03:09;5.20;;;1.10;;
2810;SDS011;1413;52.440;13.506;2022-09-04T00:05:42;4.93;;;1.20;;
2810;SDS011;1413;52.440;13.506;2022-09-04T00:08:19;5.25;;;1.20;;
2810;SDS011;1413;52.440;13.506;2022-09-04T00:10:52;4.55;;;1.20;;
2810;SDS011;1413;52.440;13.506;2022-09-04T00:13:21;4.03;;;1.02;;
2810;SDS011;1413;52.440;13.506;2022-09-04T00:15:54;4.00;;;1.20;;
2810;SDS011;1413;52.440;13.506;2022-09-04T00:18:24;3.90;;;1.10;;
2810;SDS011;1413;52.440;13.506;2022-09-04T00:20:55;3.08;;;1.00;;
2810;SDS011;1413;52.440;13.506;2022-09-04T00:23:25;4.15;;;1.00;;
2810;SDS011;1413;52.440;13.506;2022-09-04T00:25:56;6.05;;;1.30;;
2810;SDS011;1413;52.440;13.506;2022-09-04T00:28:30;3.47;;;1.10;;
2810;SDS011;1413;52.440;13.506;2022-09-04T00:30:59;3.47;;;1.15;;
2810;SDS011;1413;52.440;13.506;2022-09-04T00:33:30;6.13;;;1.20;;
2810;SDS011;1413;52.440;13.506;2022-09-04T00:35:58;7.43;;;1.25;;
2810;SDS011;1413;52.440;13.506;2022-09-04T00:38:33;5.82;;;1.02;;
2810;SDS011;1413;52.440;13.506;2022-09-04T00:41:06;7.30;;;1.00;;
2810;SDS011;1413;52.440;13.506;2022-09-04T00:43:42;3.35;;;0.95;;
2810;SDS011;1413;52.440;13.506;2022-09-04T00:46:22;2.45;;;0.85;;
2810;SDS011;1413;52.440;13.506;2022-09-04T00:48:59;3.22;;;1.00;;
2810;SDS011;1413;52.440;13.506;2022-09-04T00:51:31;2.55;;;0.80;;
2810;SDS011;1413;52.440;13.506;2022-09-04T00:54:15;3.08;;;1.00;;
2810;SDS011;1413;52.440;13.506;2022-09-04T00:56:54;8.20;;;1.60;;
2810;SDS011;1413;52.440;13.506;2022-09-04T00:59:31;3.08;;;1.00;;
2810;SDS011;1413;52.440;13.506;2022-09-04T01:02:06;3.35;;;1.20;;
2810;SDS011;1413;52.440;13.506;2022-09-04T01:04:35;4.10;;;0.95;;
2810;SDS011;1413;52.440;13.506;2022-09-04T01:07:10;2.40;;;0.90;;
2810;SDS011;1413;52.440;13.506;2022-09-04T01:12:20;4.35;;;1.00;;
2810;SDS011;1413;52.440;13.506;2022-09-04T01:14:52;2.90;;;1.00;;
2810;SDS011;1413;52.440;13.506;2022-09-04T01:17:23;3.17;;;0.90;;
2810;SDS011;1413;52.440;13.506;2022-09-04T01:19:54;3.88;;;0.93;;
2810;SDS011;1413;52.440;13.506;2022-09-04T01:22:25;2.72;;;0.90;;
2810;SDS011;1413;52.440;13.506;2022-09-04T01:25:07;4.68;;;1.20;;
2810;SDS011;1413;52.440;13.506;2022-09-04T01:27:39;4.20;;;1.10;;
2810;SDS011;1413;52.440;13.506;2022-09-04T01:30:11;3.25;;;0.88;;
2810;SDS011;1413;52.440;13.506;2022-09-04T01:32:41;2.63;;;0.82;;
2810;SDS011;1413;52.440;13.506;2022-09-04T01:35:13;3.58;;;0.70;;
2810;SDS011;1413;52.440;13.506;2022-09-04T01:37:47;3.08;;;0.90;;
2810;SDS011;1413;52.440;13.506;2022-09-04T01:40:25;3.53;;;1.10;;
2810;SDS011;1413;52.440;13.506;2022-09-04T01:43:03;3.15;;;0.90;;
2810;SDS011;1413;52.440;13.506;2022-09-04T01:45:35;4.72;;;0.95;;
2810;SDS011;1413;52.440;13.506;2022-09-04T01:48:04;3.08;;;1.15;;
2810;SDS011;1413;52.440;13.506;2022-09-04T01:50:33;3.83;;;0.90;;
2810;SDS011;1413;52.440;13.506;2022-09-04T01:53:01;4.70;;;1.00;;
2810;SDS011;1413;52.440;13.506;2022-09-04T01:55:33;5.95;;;1.20;;
2810;SDS011;1413;52.440;13.506;2022-09-04T01:58:06;3.83;;;1.20;;
2810;SDS011;1413;52.440;13.506;2022-09-04T02:00:39;2.90;;;0.93;;
2810;SDS011;1413;52.440;13.506;2022-09-04T02:03:10;5.47;;;0.90;;
2810;SDS011;1413;52.440;13.506;2022-09-04T02:05:44;4.68;;;1.20;;
2810;SDS011;1413;52.440;13.506;2022-09-04T02:08:19;3.47;;;1.10;;
2810;SDS011;1413;52.440;13.506;2022-09-04T02:10:48;3.85;;;0.93;;
2810;SDS011;1413;52.440;13.506;2022-09-04T02:13:20;3.78;;;0.77;;
2810;SDS011;1413;52.440;13.506;2022-09-04T02:15:52;3.30;;;1.00;;
2810;SDS011;1413;52.440;13.506;2022-09-04T02:18:27;3.70;;;0.88;;
2810;SDS011;1413;52.440;13.506;2022-09-04T02:21:01;2.80;;;0.90;;
2810;SDS011;1413;52.440;13.506;2022-09-04T02:23:32;4.25;;;1.02;;
2810;SDS011;1413;52.440;13.506;2022-09-04T02:26:02;3.03;;;0.85;;
2810;SDS011;1413;52.440;13.506;2022-09-04T02:28:35;2.55;;;0.90;;
2810;SDS011;1413;52.440;13.506;2022-09-04T02:31:08;3.00;;;1.10;;
2810;SDS011;1413;52.440;13.506;2022-09-04T02:33:40;4.75;;;0.80;;
2810;SDS011;1413;52.440;13.506;2022-09-04T02:36:12;3.33;;;0.82;;
2810;SDS011;1413;52.440;13.506;2022-09-04T02:38:45;6.07;;;0.90;;
2810;SDS011;1413;52.440;13.506;2022-09-04T02:41:18;4.93;;;1.02;;
2810;SDS011;1413;52.440;13.506;2022-09-04T02:43:52;3.75;;;0.82;;
2810;SDS011;1413;52.440;13.506;2022-09-04T02:48:59;3.30;;;0.93;;
2810;SDS011;1413;52.440;13.506;2022-09-04T02:51:33;5.90;;;0.80;;
2810;SDS011;1413;52.440;13.506;2022-09-04T02:54:06;3.03;;;0.82;;
2810;SDS011;1413;52.440;13.506;2022-09-04T02:56:38;2.80;;;0.80;;
2810;SDS011;1413;52.440;13.506;2022-09-04T02:59:23;3.38;;;0.82;;
2810;SDS011;1413;52.440;13.506;2022-09-04T03:01:55;3.50;;;0.90;;
2810;SDS011;1413;52.440;13.506;2022-09-04T03:04:25;2.60;;;0.80;;
2810;SDS011;1413;52.440;13.506;2022-09-04T03:06:58;3.55;;;1.00;;
2810;SDS011;1413;52.440;13.506;2022-09-04T03:09:28;2.60;;;0.88;;
2810;SDS011;1413;52.440;13.506;2022-09-04T03:11:58;4.72;;;1.20;;
2810;SDS011;1413;52.440;13.506;2022-09-04T03:14:31;3.95;;;0.80;;
2810;SDS011;1413;52.440;13.506;2022-09-04T03:17:04;5.57;;;0.80;;
2810;SDS011;1413;52.440;13.506;2022-09-04T03:19:34;3.75;;;0.85;;
2810;SDS011;1413;52.440;13.506;2022-09-04T03:22:03;2.78;;;0.80;;
2810;SDS011;1413;52.440;13.506;2022-09-04T03:24:34;2.13;;;0.63;;
2810;SDS011;1413;52.440;13.506;2022-09-04T03:27:04;2.65;;;0.52;;
2810;SDS011;1413;52.440;13.506;2022-09-04T03:29:36;2.90;;;0.70;;
2810;SDS011;1413;52.440;13.506;2022-09-04T03:32:09;3.55;;;0.70;;
2810;SDS011;1413;52.440;13.506;2022-09-04T03:34:45;4.18;;;0.77;;
2810;SDS011;1413;52.440;13.506;2022-09-04T03:37:25;4.22;;;0.80;;
2810;SDS011;1413;52.440;13.506;2022-09-04T03:40:01;3.50;;;0.85;;
2810;SDS011;1413;52.440;13.506;2022-09-04T03:42:34;2.47;;;0.80;;
2810;SDS011;1413;52.440;13.506;2022-09-04T03:45:11;2.95;;;0.70;;
2810;SDS011;1413;52.440;13.506;2022-09-04T03:47:42;2.95;;;0.80;;
2810;SDS011;1413;52.440;13.506;2022-09-04T03:50:14;3.22;;;0.70;;
2810;SDS011;1413;52.440;13.506;2022-09-04T03:52:47;3.22;;;0.80;;
2810;SDS011;1413;52.440;13.506;2022-09-04T03:55:21;2.58;;;0.77;;
2810;SDS011;1413;52.440;13.506;2022-09-04T03:57:55;2.83;;;0.80;;
2810;SDS011;1413;52.440;13.506;2022-09-04T04:00:26;3.33;;;0.88;;
2810;SDS011;1413;52.440;13.506;2022-09-04T04:03:01;3.33;;;0.70;;
2810;SDS011;1413;52.440;13.506;2022-09-04T04:05:35;1.95;;;0.60;;
2810;SDS011;1413;52.440;13.506;2022-09-04T04:08:14;3.10;;;0.73;;
2810;SDS011;1413;52.440;13.506;2022-09-04T04:13:12;1.58;;;0.55;;
2810;SDS011;1413;52.440;13.506;2022-09-04T04:15:48;2.78;;;0.80;;
2810;SDS011;1413;52.440;13.506;2022-09-04T04:18:30;2.88;;;0.85;;
2810;SDS011;1413;52.440;13.506;2022-09-04T04:21:02;2.60;;;0.95;;
2810;SDS011;1413;52.440;13.506;2022-09-04T04:23:47;3.47;;;1.00;;
2810;SDS011;1413;52.440;13.506;2022-09-04T04:26:27;2.95;;;0.85;;
2810;SDS011;1413;52.440;13.506;2022-09-04T04:29:13;3.67;;;1.08;;
2810;SDS011;1413;52.440;13.506;2022-09-04T04:31:47;3.00;;;0.90;;
2810;SDS011;1413;52.440;13.506;2022-09-04T04:34:48;2.47;;;0.80;;
2810;SDS011;1413;52.440;13.506;2022-09-04T04:37:21;2.28;;;0.73;;
2810;SDS011;1413;52.440;13.506;2022-09-04T04:39:55;3.42;;;1.10;;
2810;SDS011;1413;52.440;13.506;2022-09-04T04:42:27;2.80;;;0.95;;
2810;SDS011;1413;52.440;13.506;2022-09-04T04:45:04;2.80;;;0.90;;
2810;SDS011;1413;52.440;13.506;2022-09-04T04:48:03;2.88;;;0.82;;
2810;SDS011;1413;52.440;13.506;2022-09-04T04:50:37;2.97;;;0.80;;
2810;SDS011;1413;52.440;13.506;2022-09-04T04:53:10;3.08;;;0.95;;
2810;SDS011;1413;52.440;13.506;2022-09-04T04:55:43;2.97;;;0.82;;
2810;SDS011;1413;52.440;13.506;2022-09-04T05:01:12;4.30;;;0.88;;
2810;SDS011;1413;52.440;13.506;2022-09-04T05:03:45;3.08;;;1.15;;
2810;SDS011;1413;52.440;13.506;2022-09-04T05:06:17;3.00;;;0.95;;
2810;SDS011;1413;52.440;13.506;2022-09-04T05:08:48;2.80;;;0.80;;
2810;SDS011;1413;52.440;13.506;2022-09-04T05:11:22;4.03;;;0.90;;
2810;SDS011;1413;52.440;13.506;2022-09-04T05:13:56;2.65;;;0.80;;
2810;SDS011;1413;52.440;13.506;2022-09-04T05:16:29;3.35;;;0.82;;
2810;SDS011;1413;52.440;13.506;2022-09-04T05:19:05;2.95;;;0.70;;
2810;SDS011;1413;52.440;13.506;2022-09-04T05:21:33;3.08;;;0.85;;
2810;SDS011;1413;52.440;13.506;2022-09-04T05:24:03;3.50;;;0.90;;
2810;SDS011;1413;52.440;13.506;2022-09-04T05:26:32;2.70;;;0.80;;
2810;SDS011;1413;52.440;13.506;2022-09-04T05:29:03;3.35;;;0.80;;
2810;SDS011;1413;52.440;13.506;2022-09-04T05:31:38;3.53;;;1.10;;
2810;SDS011;1413;52.440;13.506;2022-09-04T05:34:10;3.30;;;0.70;;
2810;SDS011;1413;52.440;13.506;2022-09-04T05:36:45;3.60;;;0.95;;
2810;SDS011;1413;52.440;13.506;2022-09-04T05:39:16;3.15;;;1.20;;
2810;SDS011;1413;52.440;13.506;2022-09-04T05:41:53;4.07;;;0.70;;
2810;SDS011;1413;52.440;13.506;2022-09-04T05:44:33;2.50;;;1.05;;
2810;SDS011;1413;52.440;13.506;2022-09-04T05:47:04;4.05;;;1.00;;
2810;SDS011;1413;52.440;13.506;2022-09-04T05:49:41;3.17;;;0.95;;
2810;SDS011;1413;52.440;13.506;2022-09-04T05:57:55;3.28;;;0.80;;
2810;SDS011;1413;52.440;13.506;2022-09-04T06:00:25;3.28;;;0.95;;
2810;SDS011;1413;52.440;13.506;2022-09-04T06:03:02;2.75;;;0.70;;
2810;SDS011;1413;52.440;13.506;2022-09-04T06:05:42;3.08;;;0.90;;
2810;SDS011;1413;52.440;13.506;2022-09-04T06:08:14;3.20;;;0.95;;
2810;SDS011;1413;52.440;13.506;2022-09-04T06:10:57;2.30;;;0.90;;
2810;SDS011;1413;52.440;13.506;2022-09-04T06:13:39;2.60;;;0.88;;
2810;SDS011;1413;52.440;13.506;2022-09-04T06:16:16;2.90;;;0.90;;
2810;SDS011;1413;52.440;13.506;2022-09-04T06:18:50;3.45;;;1.00;;
2810;SDS011;1413;52.440;13.506;2022-09-04T06:24:10;5.78;;;1.23;;
2810;SDS011;1413;52.440;13.506;2022-09-04T06:26:51;4.18;;;1.10;;
2810;SDS011;1413;52.440;13.506;2022-09-04T06:29:26;4.05;;;0.90;;
2810;SDS011;1413;52.440;13.506;2022-09-04T06:31:59;2.90;;;0.90;;
2810;SDS011;1413;52.440;13.506;2022-09-04T06:34:34;4.35;;;1.13;;
2810;SDS011;1413;52.440;13.506;2022-09-04T06:37:06;4.30;;;0.90;;
2810;SDS011;1413;52.440;13.506;2022-09-04T06:39:51;3.95;;;1.33;;
2810;SDS011;1413;52.440;13.506;2022-09-04T06:44:52;4.45;;;0.98;;
2810;SDS011;1413;52.440;13.506;2022-09-04T06:47:24;3.40;;;1.35;;
2810;SDS011;1413;52.440;13.506;2022-09-04T06:50:01;5.00;;;1.10;;
2810;SDS011;1413;52.440;13.506;2022-09-04T06:55:02;3.28;;;1.10;;
2810;SDS011;1413;52.440;13.506;2022-09-04T06:57:43;3.05;;;0.98;;
2810;SDS011;1413;52.440;13.506;2022-09-04T07:00:16;4.43;;;1.10;;
2810;SDS011;1413;52.440;13.506;2022-09-04T07:02:53;4.25;;;1.20;;
2810;SDS011;1413;52.440;13.506;2022-09-04T07:05:26;4.38;;;1.30;;
2810;SDS011;1413;52.440;13.506;2022-09-04T07:07:57;3.55;;;1.23;;
2810;SDS011;1413;52.440;13.506;2022-09-04T07:10:29;4.60;;;1.13;;
2810;SDS011;1413;52.440;13.506;2022-09-04T07:15:53;4.57;;;1.20;;
2810;SDS011;1413;52.440;13.506;2022-09-04T07:18:38;3.75;;;1.30;;
2810;SDS011;1413;52.440;13.506;2022-09-04T07:21:10;4.65;;;1.10;;
2810;SDS011;1413;52.440;13.506;2022-09-04T07:23:41;5.03;;;1.13;;
2810;SDS011;1413;52.440;13.506;2022-09-04T07:26:16;5.50;;;1.17;;
2810;SDS011;1413;52.440;13.506;2022-09-04T07:28:50;2.92;;;1.10;;
2810;SDS011;1413;52.440;13.506;2022-09-04T07:31:23;3.20;;;1.30;;
2810;SDS011;1413;52.440;13.506;2022-09-04T07:33:54;3.50;;;1.30;;
2810;SDS011;1413;52.440;13.506;2022-09-04T07:36:26;4.78;;;1.38;;
2810;SDS011;1413;52.440;13.506;2022-09-04T07:38:59;3.95;;;1.33;;
2810;SDS011;1413;52.440;13.506;2022-09-04T07:41:33;3.97;;;1.30;;
2810;SDS011;1413;52.440;13.506;2022-09-04T07:44:05;4.72;;;1.35;;
2810;SDS011;1413;52.440;13.506;2022-09-04T07:46:38;4.55;;;1.30;;
2810;SDS011;1413;52.440;13.506;2022-09-04T07:49:11;6.30;;;1.50;;
2810;SDS011;1413;52.440;13.506;2022-09-04T07:51:40;6.18;;;1.65;;
2810;SDS011;1413;52.440;13.506;2022-09-04T07:54:13;4.25;;;1.40;;
2810;SDS011;1413;52.440;13.506;2022-09-04T07:56:54;3.30;;;1.40;;
2810;SDS011;1413;52.440;13.506;2022-09-04T07:59:29;3.97;;;1.40;;
2810;SDS011;1413;52.440;13.506;2022-09-04T08:02:02;4.10;;;1.23;;
2810;SDS011;1413;52.440;13.506;2022-09-04T08:04:47;5.85;;;1.23;;
2810;SDS011;1413;52.440;13.506;2022-09-04T08:09:53;5.55;;;1.50;;
2810;SDS011;1413;52.440;13.506;2022-09-04T08:12:27;5.90;;;1.85;;
2810;SDS011;1413;52.440;13.506;2022-09-04T08:15:02;6.38;;;1.67;;
2810;SDS011;1413;52.440;13.506;2022-09-04T08:17:42;3.20;;;1.23;;
2810;SDS011;1413;52.440;13.506;2022-09-04T08:20:16;5.88;;;1.38;;
2810;SDS011;1413;52.440;13.506;2022-09-04T08:22:47;4.90;;;1.75;;
2810;SDS011;1413;52.440;13.506;2022-09-04T08:25:19;5.60;;;1.40;;
2810;SDS011;1413;52.440;13.506;2022-09-04T08:27:54;3.60;;;1.50;;
2810;SDS011;1413;52.440;13.506;2022-09-04T08:30:25;3.00;;;1.48;;
2810;SDS011;1413;52.440;13.506;2022-09-04T08:33:04;5.15;;;1.50;;
2810;SDS011;1413;52.440;13.506;2022-09-04T08:35:36;4.03;;;1.45;;
2810;SDS011;1413;52.440;13.506;2022-09-04T08:38:16;4.50;;;1.50;;
2810;SDS011;1413;52.440;13.506;2022-09-04T08:40:56;3.78;;;1.45;;
2810;SDS011;1413;52.440;13.506;2022-09-04T08:43:35;4.22;;;1.60;;
2810;SDS011;1413;52.440;13.506;2022-09-04T08:46:16;3.85;;;1.67;;
2810;SDS011;1413;52.440;13.506;2022-09-04T08:49:08;3.70;;;1.42;;
2810;SDS011;1413;52.440;13.506;2022-09-04T08:57:27;4.32;;;1.65;;
2810;SDS011;1413;52.440;13.506;2022-09-04T09:00:03;4.10;;;1.55;;
2810;SDS011;1413;52.440;13.506;2022-09-04T09:08:12;4.20;;;1.60;;
2810;SDS011;1413;52.440;13.506;2022-09-04T09:19:06;3.58;;;1.52;;
2810;SDS011;1413;52.440;13.506;2022-09-04T09:21:40;4.38;;;1.50;;
2810;SDS011;1413;52.440;13.506;2022-09-04T09:24:34;3.25;;;1.33;;
2810;SDS011;1413;52.440;13.506;2022-09-04T09:27:09;5.80;;;1.20;;
2810;SDS011;1413;52.440;13.506;2022-09-04T09:35:26;3.20;;;1.35;;
2810;SDS011;1413;52.440;13.506;2022-09-04T09:38:09;4.72;;;1.40;;
2810;SDS011;1413;52.440;13.506;2022-09-04T09:46:26;3.28;;;1.10;;
2810;SDS011;1413;52.440;13.506;2022-09-04T09:49:04;4.22;;;1.20;;
2810;SDS011;1413;52.440;13.506;2022-09-04T09:51:45;3.00;;;1.30;;
2810;SDS011;1413;52.440;13.506;2022-09-04T09:54:30;4.88;;;1.40;;
2810;SDS011;1413;52.440;13.506;2022-09-04T09:57:21;3.85;;;1.20;;
2810;SDS011;1413;52.440;13.506;2022-09-04T10:00:07;3.38;;;1.42;;
2810;SDS011;1413;52.440;13.506;2022-09-04T10:02:43;2.95;;;1.20;;
2810;SDS011;1413;52.440;13.506;2022-09-04T10:08:10;3.92;;;1.10;;
2810;SDS011;1413;52.440;13.506;2022-09-04T10:10:44;3.00;;;1.15;;
2810;SDS011;1413;52.440;13.506;2022-09-04T10:13:23;3.42;;;1.15;;
2810;SDS011;1413;52.440;13.506;2022-09-04T10:18:34;3.65;;;1.50;;
2810;SDS011;1413;52.440;13.506;2022-09-04T10:21:11;2.75;;;0.98;;
2810;SDS011;1413;52.440;13.506;2022-09-04T10:26:36;5.43;;;1.65;;
2810;SDS011;1413;52.440;13.506;2022-09-04T10:29:21;6.35;;;1.75;;
2810;SDS011;1413;52.440;13.506;2022-09-04T10:32:03;3.80;;;1.50;;
2810;SDS011;1413;52.440;13.506;2022-09-04T10:34:42;3.72;;;1.30;;
2810;SDS011;1413;52.440;13.506;2022-09-04T10:37:17;5.68;;;2.03;;
2810;SDS011;1413;52.440;13.506;2022-09-04T10:39:51;5.22;;;1.40;;
2810;SDS011;1413;52.440;13.506;2022-09-04T10:42:47;4.05;;;1.40;;
2810;SDS011;1413;52.440;13.506;2022-09-04T10:45:19;4.22;;;1.65;;
2810;SDS011;1413;52.440;13.506;2022-09-04T10:48:05;3.83;;;1.50;;
2810;SDS011;1413;52.440;13.506;2022-09-04T10:50:40;6.93;;;1.40;;
2810;SDS011;1413;52.440;13.506;2022-09-04T10:53:24;6.28;;;1.55;;
2810;SDS011;1413;52.440;13.506;2022-09-04T10:56:01;3.78;;;1.42;;
2810;SDS011;1413;52.440;13.506;2022-09-04T10:58:37;4.07;;;1.30;;
2810;SDS011;1413;52.440;13.506;2022-09-04T11:01:17;6.70;;;1.50;;
2810;SDS011;1413;52.440;13.506;2022-09-04T11:03:58;4.25;;;1.45;;
2810;SDS011;1413;52.440;13.506;2022-09-04T11:07:01;3.95;;;1.50;;
2810;SDS011;1413;52.440;13.506;2022-09-04T11:09:50;3.70;;;1.58;;
2810;SDS011;1413;52.440;13.506;2022-09-04T11:18:02;3.30;;;1.23;;
2810;SDS011;1413;52.440;13.506;2022-09-04T11:23:23;3.28;;;1.30;;
2810;SDS011;1413;52.440;13.506;2022-09-04T11:26:07;4.82;;;1.40;;
2810;SDS011;1413;52.440;13.506;2022-09-04T11:28:42;3.30;;;1.40;;
2810;SDS011;1413;52.440;13.506;2022-09-04T11:34:23;5.38;;;1.50;;
2810;SDS011;1413;52.440;13.506;2022-09-04T11:39:49;4.10;;;1.38;;
2810;SDS011;1413;52.440;13.506;2022-09-04T11:42:30;5.43;;;1.42;;
2810;SDS011;1413;52.440;13.506;2022-09-04T11:47:53;4.65;;;1.10;;
2810;SDS011;1413;52.440;13.506;2022-09-04T11:50:30;3.33;;;1.25;;
2810;SDS011;1413;52.440;13.506;2022-09-04T11:55:54;5.38;;;1.27;;
2810;SDS011;1413;52.440;13.506;2022-09-04T11:58:29;4.47;;;1.40;;
2810;SDS011;1413;52.440;13.506;2022-09-04T12:06:21;3.70;;;1.50;;
2810;SDS011;1413;52.440;13.506;2022-09-04T12:08:57;3.42;;;1.20;;
2810;SDS011;1413;52.440;13.506;2022-09-04T12:14:19;3.38;;;1.30;;
2810;SDS011;1413;52.440;13.506;2022-09-04T12:19:58;3.83;;;1.20;;
2810;SDS011;1413;52.440;13.506;2022-09-04T12:22:46;3.47;;;1.20;;
2810;SDS011;1413;52.440;13.506;2022-09-04T12:25:29;3.05;;;1.13;;
2810;SDS011;1413;52.440;13.506;2022-09-04T12:28:25;4.18;;;1.30;;
2810;SDS011;1413;52.440;13.506;2022-09-04T12:31:03;3.17;;;1.23;;
2810;SDS011;1413;52.440;13.506;2022-09-04T12:33:43;4.05;;;1.20;;
2810;SDS011;1413;52.440;13.506;2022-09-04T12:36:19;5.18;;;1.30;;
2810;SDS011;1413;52.440;13.506;2022-09-04T12:38:54;3.42;;;1.15;;
2810;SDS011;1413;52.440;13.506;2022-09-04T12:41:29;3.67;;;1.27;;
2810;SDS011;1413;52.440;13.506;2022-09-04T12:44:03;6.28;;;1.40;;
2810;SDS011;1413;52.440;13.506;2022-09-04T12:46:37;3.80;;;1.00;;
2810;SDS011;1413;52.440;13.506;2022-09-04T12:49:23;2.97;;;1.20;;
2810;SDS011;1413;52.440;13.506;2022-09-04T12:51:54;3.70;;;1.30;;
2810;SDS011;1413;52.440;13.506;2022-09-04T12:54:29;3.60;;;1.30;;
2810;SDS011;1413;52.440;13.506;2022-09-04T12:57:04;3.00;;;1.10;;
2810;SDS011;1413;52.440;13.506;2022-09-04T12:59:44;3.25;;;1.10;;
2810;SDS011;1413;52.440;13.506;2022-09-04T13:02:16;3.97;;;1.30;;
2810;SDS011;1413;52.440;13.506;2022-09-04T13:04:51;4.32;;;1.17;;
2810;SDS011;1413;52.440;13.506;2022-09-04T13:07:25;3.53;;;1.10;;
2810;SDS011;1413;52.440;13.506;2022-09-04T13:10:01;4.68;;;1.20;;
2810;SDS011;1413;52.440;13.506;2022-09-04T13:12:31;2.97;;;1.00;;
2810;SDS011;1413;52.440;13.506;2022-09-04T13:15:03;3.72;;;1.05;;
2810;SDS011;1413;52.440;13.506;2022-09-04T13:17:37;2.97;;;1.27;;
2810;SDS011;1413;52.440;13.506;2022-09-04T13:20:11;7.03;;;1.40;;
2810;SDS011;1413;52.440;13.506;2022-09-04T13:22:46;6.53;;;1.40;;
2810;SDS011;1413;52.440;13.506;2022-09-04T13:25:19;4.25;;;1.38;;
2810;SDS011;1413;52.440;13.506;2022-09-04T13:27:55;5.43;;;1.17;;
2810;SDS011;1413;52.440;13.506;2022-09-04T13:30:25;5.50;;;1.92;;
2810;SDS011;1413;52.440;13.506;2022-09-04T13:35:42;5.40;;;1.70;;
2810;SDS011;1413;52.440;13.506;2022-09-04T13:38:38;4.45;;;1.40;;
2810;SDS011;1413;52.440;13.506;2022-09-04T13:44:04;5.90;;;1.40;;
2810;SDS011;1413;52.440;13.506;2022-09-04T13:46:35;3.50;;;1.80;;
2810;SDS011;1413;52.440;13.506;2022-09-04T13:49:07;2.85;;;1.23;;
2810;SDS011;1413;52.440;13.506;2022-09-04T13:51:37;2.80;;;1.17;;
2810;SDS011;1413;52.440;13.506;2022-09-04T13:54:09;3.17;;;1.08;;
2810;SDS011;1413;52.440;13.506;2022-09-04T13:56:38;3.72;;;1.20;;
2810;SDS011;1413;52.440;13.506;2022-09-04T13:59:09;3.63;;;1.10;;
2810;SDS011;1413;52.440;13.506;2022-09-04T14:01:41;2.80;;;1.10;;
2810;SDS011;1413;52.440;13.506;2022-09-04T14:04:12;3.20;;;1.05;;
2810;SDS011;1413;52.440;13.506;2022-09-04T14:06:42;3.30;;;1.02;;
2810;SDS011;1413;52.440;13.506;2022-09-04T14:09:10;4.40;;;1.30;;
2810;SDS011;1413;52.440;13.506;2022-09-04T14:11:59;3.10;;;1.05;;
2810;SDS011;1413;52.440;13.506;2022-09-04T14:14:35;3.08;;;1.40;;
2810;SDS011;1413;52.440;13.506;2022-09-04T14:17:06;3.05;;;1.27;;
2810;SDS011;1413;52.440;13.506;2022-09-04T14:19:38;3.30;;;1.40;;
2810;SDS011;1413;52.440;13.506;2022-09-04T14:22:21;2.92;;;1.02;;
2810;SDS011;1413;52.440;13.506;2022-09-04T14:24:53;3.17;;;1.05;;
2810;SDS011;1413;52.440;13.506;2022-09-04T14:27:24;4.28;;;1.08;;
2810;SDS011;1413;52.440;13.506;2022-09-04T14:29:58;2.90;;;1.10;;
2810;SDS011;1413;52.440;13.506;2022-09-04T14:32:29;7.35;;;1.30;;
2810;SDS011;1413;52.440;13.506;2022-09-04T14:35:03;3.60;;;1.10;;
2810;SDS011;1413;52.440;13.506;2022-09-04T14:40:17;4.53;;;1.50;;
2810;SDS011;1413;52.440;13.506;2022-09-04T14:42:46;5.40;;;1.23;;
2810;SDS011;1413;52.440;13.506;2022-09-04T14:45:25;3.65;;;1.17;;
2810;SDS011;1413;52.440;13.506;2022-09-04T14:47:56;4.00;;;1.50;;
2810;SDS011;1413;52.440;13.506;2022-09-04T14:50:25;3.53;;;1.30;;
2810;SDS011;1413;52.440;13.506;2022-09-04T14:52:55;3.58;;;1.30;;
2810;SDS011;1413;52.440;13.506;2022-09-04T14:55:24;3.22;;;1.30;;
2810;SDS011;1413;52.440;13.506;2022-09-04T14:57:54;3.53;;;1.20;;
2810;SDS011;1413;52.440;13.506;2022-09-04T15:00:25;2.78;;;1.05;;
2810;SDS011;1413;52.440;13.506;2022-09-04T15:02:56;3.15;;;1.30;;
2810;SDS011;1413;52.440;13.506;2022-09-04T15:05:27;3.85;;;1.27;;
2810;SDS011;1413;52.440;13.506;2022-09-04T15:07:56;2.92;;;1.10;;
2810;SDS011;1413;52.440;13.506;2022-09-04T15:10:27;2.90;;;1.13;;
2810;SDS011;1413;52.440;13.506;2022-09-04T15:15:40;3.38;;;1.23;;
2810;SDS011;1413;52.440;13.506;2022-09-04T15:18:09;3.70;;;1.20;;
2810;SDS011;1413;52.440;13.506;2022-09-04T15:20:45;3.95;;;1.20;;
2810;SDS011;1413;52.440;13.506;2022-09-04T15:23:21;3.50;;;1.35;;
2810;SDS011;1413;52.440;13.506;2022-09-04T15:25:52;2.97;;;1.30;;
2810;SDS011;1413;52.440;13.506;2022-09-04T15:28:26;5.53;;;1.27;;
2810;SDS011;1413;52.440;13.506;2022-09-04T15:31:03;2.97;;;1.20;;
2810;SDS011;1413;52.440;13.506;2022-09-04T15:33:40;3.20;;;1.10;;
2810;SDS011;1413;52.440;13.506;2022-09-04T15:36:08;2.92;;;1.15;;
2810;SDS011;1413;52.440;13.506;2022-09-04T15:38:44;3.13;;;1.20;;
2810;SDS011;1413;52.440;13.506;2022-09-04T15:41:14;3.20;;;1.20;;
2810;SDS011;1413;52.440;13.506;2022-09-04T15:43:46;3.22;;;1.10;;
2810;SDS011;1413;52.440;13.506;2022-09-04T15:46:23;3.33;;;1.10;;
2810;SDS011;1413;52.440;13.506;2022-09-04T15:48:57;2.80;;;1.17;;
2810;SDS011;1413;52.440;13.506;2022-09-04T15:51:35;3.13;;;1.17;;
2810;SDS011;1413;52.440;13.506;2022-09-04T15:54:12;6.43;;;1.20;;
2810;SDS011;1413;52.440;13.506;2022-09-04T15:56:41;3.22;;;1.30;;
2810;SDS011;1413;52.440;13.506;2022-09-04T15:59:11;3.65;;;1.02;;
2810;SDS011;1413;52.440;13.506;2022-09-04T16:01:44;2.60;;;1.00;;
2810;SDS011;1413;52.440;13.506;2022-09-04T16:04:16;4.82;;;1.35;;
2810;SDS011;1413;52.440;13.506;2022-09-04T16:06:47;3.58;;;1.20;;
2810;SDS011;1413;52.440;13.506;2022-09-04T16:09:22;3.55;;;1.00;;
2810;SDS011;1413;52.440;13.506;2022-09-04T16:11:53;4.93;;;1.10;;
2810;SDS011;1413;52.440;13.506;2022-09-04T16:14:25;4.13;;;1.17;;
2810;SDS011;1413;52.440;13.506;2022-09-04T16:16:57;2.80;;;1.17;;
2810;SDS011;1413;52.440;13.506;2022-09-04T16:19:28;3.78;;;1.20;;
2810;SDS011;1413;52.440;13.506;2022-09-04T16:22:00;4.00;;;1.42;;
2810;SDS011;1413;52.440;13.506;2022-09-04T16:24:31;2.63;;;1.30;;
2810;SDS011;1413;52.440;13.506;2022-09-04T16:27:03;3.08;;;1.10;;
2810;SDS011;1413;52.440;13.506;2022-09-04T16:29:33;3.50;;;1.23;;
2810;SDS011;1413;52.440;13.506;2022-09-04T16:32:03;3.00;;;1.15;;
2810;SDS011;1413;52.440;13.506;2022-09-04T16:34:32;3.92;;;1.27;;
2810;SDS011;1413;52.440;13.506;2022-09-04T16:37:03;3.40;;;1.10;;
2810;SDS011;1413;52.440;13.506;2022-09-04T16:39:40;2.72;;;1.17;;
2810;SDS011;1413;52.440;13.506;2022-09-04T16:42:13;3.17;;;1.20;;
2810;SDS011;1413;52.440;13.506;2022-09-04T16:44:43;3.78;;;1.45;;
2810;SDS011;1413;52.440;13.506;2022-09-04T16:47:16;3.78;;;1.65;;
2810;SDS011;1413;52.440;13.506;2022-09-04T16:49:47;3.78;;;1.23;;
2810;SDS011;1413;52.440;13.506;2022-09-04T16:52:24;4.38;;;1.55;;
2810;SDS011;1413;52.440;13.506;2022-09-04T16:54:55;2.97;;;1.30;;
2810;SDS011;1413;52.440;13.506;2022-09-04T16:57:28;3.78;;;1.20;;
2810;SDS011;1413;52.440;13.506;2022-09-04T16:59:59;4.65;;;1.40;;
2810;SDS011;1413;52.440;13.506;2022-09-04T17:02:32;5.28;;;1.30;;
2810;SDS011;1413;52.440;13.506;2022-09-04T17:05:08;5.95;;;1.50;;
2810;SDS011;1413;52.440;13.506;2022-09-04T17:07:40;5.65;;;1.42;;
2810;SDS011;1413;52.440;13.506;2022-09-04T17:10:11;5.03;;;;;
2810;SDS011;1413;52.440;13.506;2022-09-04T17:12:46;5.03;;;1.50;;
2810;SDS011;1413;52.440;13.506;2022-09-04T17:15:16;6.82;;;1.80;;
2810;SDS011;1413;52.440;13.506;2022-09-04T17:17:47;4.10;;;1.45;;
2810;SDS011;1413;52.440;13.506;2022-09-04T17:20:20;4.95;;;1.35;;
2810;SDS011;1413;52.440;13.506;2022-09-04T17:23:10;5.40;;;1.65;;
2810;SDS011;1413;52.440;13.506;2022-09-04T17:26:01;4.55;;;1.48;;
2810;SDS011;1413;52.440;13.506;2022-09-04T17:28:53;5.13;;;1.67;;
2810;SDS011;1413;52.440;13.506;2022-09-04T17:31:50;3.80;;;1.48;;
2810;SDS011;1413;52.440;13.506;2022-09-04T17:34:22;4.60;;;1.40;;
2810;SDS011;1413;52.440;13.506;2022-09-04T17:37:13;3.70;;;1.50;;
2810;SDS011;1413;52.440;13.506;2022-09-04T17:40:03;4.18;;;1.25;;